Time;durP1;ratioP1;P1;durP2;ratioP2;P2;SDS_P1;SDS_P2;PMS_P1;PMS_P2;Temp;Humidity;BMP_temperature;BMP_pressure;BME280_temperature;BME280_humidity;BME280_pressure;Samples;Min_cycle;Max_cycle;Signal;HPM_P1;HPM_P2
2023/09/10 00:01:02;;;;;;;12.90;11.55;;;;;;;;;;6339550;22;20078;-90
2023/09/10 00:03:28;;;;;;;15.60;11.23;;;;;;;;;;6341224;22;20002;-92
2023/09/10 00:05:53;;;;;;;12.98;11.77;;;;;;;;;;6313772;22;20003;-90
2023/09/10 00:08:19;;;;;;;13.88;12.18;;;;;;;;;;6313860;22;20007;-90
2023/09/10 00:10:45;;;;;;;13.38;11.18;;;;;;;;;;6313884;22;19999;-90
2023/09/10 00:13:11;;;;;;;12.43;11.30;;;;;;;;;;6341011;22;20330;-91
2023/09/10 00:15:36;;;;;;;12.65;11.45;;;;;;;;;;6341076;22;20325;-90
2023/09/10 00:18:02;;;;;;;12.82;11.60;;;;;;;;;;6341131;22;20005;-91
2023/09/10 00:20:28;;;;;;;12.50;11.35;;;;;;;;;;6313350;22;19999;-90
2023/09/10 00:22:53;;;;;;;13.38;12.05;;;;;;;;;;6313434;22;20421;-90
2023/09/10 00:25:18;;;;;;;13.50;11.57;;;;;;;;;;6341340;22;20475;-91
2023/09/10 00:27:44;;;;;;;14.52;11.93;;;;;;;;;;6341362;22;20007;-90
2023/09/10 00:30:10;;;;;;;13.80;12.23;;;;;;;;;;6313196;22;20075;-90
2023/09/10 00:32:35;;;;;;;11.88;10.73;;;;;;;;;;6340767;22;20025;-91
2023/09/10 00:35:01;;;;;;;15.20;11.63;;;;;;;;;;6313028;22;20018;-91
2023/09/10 00:37:26;;;;;;;13.35;12.07;;;;;;;;;;6340911;22;20056;-90
2023/09/10 00:39:52;;;;;;;13.57;12.30;;;;;;;;;;6313216;22;20326;-90
2023/09/10 00:42:17;;;;;;;14.15;11.55;;;;;;;;;;6340408;22;20402;-90
2023/09/10 00:44:43;;;;;;;13.00;11.80;;;;;;;;;;6313289;22;20048;-93
2023/09/10 00:47:09;;;;;;;12.07;10.80;;;;;;;;;;6340851;22;20011;-92
2023/09/10 00:49:35;;;;;;;12.32;11.23;;;;;;;;;;6341028;22;20475;-92
2023/09/10 00:52:02;;;;;;;12.57;11.25;;;;;;;;;;6341228;22;20003;-91
2023/09/10 00:54:32;;;;;;;13.23;12.02;;;;;;;;;;6314201;22;19999;-94
2023/09/10 00:57:00;;;;;;;13.05;11.75;;;;;;;;;;6313414;22;20137;-91
2023/09/10 00:59:26;;;;;;;12.50;11.20;;;;;;;;;;6340968;22;20066;-93
2023/09/10 01:01:52;;;;;;;12.68;11.48;;;;;;;;;;6313311;22;19999;-93
2023/09/10 01:04:21;;;;;;;13.65;12.10;;;;;;;;;;6340857;22;20376;-89
2023/09/10 01:06:47;;;;;;;12.33;10.97;;;;;;;;;;6312913;22;20002;-92
2023/09/10 01:09:13;;;;;;;13.55;12.18;;;;;;;;;;6313377;22;20310;-92
2023/09/10 01:11:57;;;;;;;13.32;12.02;;;;;;;;;;6340858;22;20030;-93
2023/09/10 01:14:36;;;;;;;13.23;11.70;;;;;;;;;;6313223;22;20006;-94
2023/09/10 01:17:13;;;;;;;13.05;11.77;;;;;;;;;;6313347;22;20014;-92
2023/09/10 01:19:50;;;;;;;13.07;11.77;;;;;;;;;;6313729;22;20095;-91
2023/09/10 01:22:24;;;;;;;14.05;11.98;;;;;;;;;;6340454;22;20056;-92
2023/09/10 01:24:51;;;;;;;12.80;11.45;;;;;;;;;;6340535;22;19991;-92
2023/09/10 01:27:17;;;;;;;13.27;11.93;;;;;;;;;;6340800;22;20082;-91
2023/09/10 01:29:42;;;;;;;11.52;10.30;;;;;;;;;;6312907;22;20031;-91
2023/09/10 01:32:31;;;;;;;12.32;11.23;;;;;;;;;;6313315;22;20002;-93
2023/09/10 01:35:07;;;;;;;13.60;12.13;;;;;;;;;;6312735;22;20042;-91
2023/09/10 01:37:50;;;;;;;12.85;11.55;;;;;;;;;;6312994;22;20501;-93
2023/09/10 01:40:20;;;;;;;12.20;11.00;;;;;;;;;;6312765;22;20041;-93
2023/09/10 01:42:48;;;;;;;12.68;11.43;;;;;;;;;;6312914;22;20082;-91
2023/09/10 01:45:14;;;;;;;12.65;11.02;;;;;;;;;;6340456;22;20056;-93
2023/09/10 01:47:40;;;;;;;14.27;11.52;;;;;;;;;;6312981;22;20003;-91
2023/09/10 01:50:07;;;;;;;13.55;11.38;;;;;;;;;;6312913;22;20086;-93
2023/09/10 01:52:32;;;;;;;12.63;11.32;;;;;;;;;;6340367;22;20003;-92
2023/09/10 01:54:58;;;;;;;13.10;11.90;;;;;;;;;;6313134;22;20459;-93
2023/09/10 01:57:23;;;;;;;12.48;11.35;;;;;;;;;;6313501;22;20013;-93
2023/09/10 01:59:49;;;;;;;13.07;11.35;;;;;;;;;;6313073;22;20075;-93
2023/09/10 02:02:15;;;;;;;13.13;11.23;;;;;;;;;;6313020;22;20151;-92
2023/09/10 02:04:40;;;;;;;15.20;11.15;;;;;;;;;;6313274;22;20010;-92
2023/09/10 02:07:06;;;;;;;15.43;12.05;;;;;;;;;;6313231;22;20038;-93
2023/09/10 02:09:31;;;;;;;12.93;11.63;;;;;;;;;;6340403;22;20333;-94
2023/09/10 02:11:57;;;;;;;13.18;11.77;;;;;;;;;;6340421;22;20370;-92
2023/09/10 02:14:23;;;;;;;13.23;11.93;;;;;;;;;;6340507;22;20311;-92
2023/09/10 02:16:49;;;;;;;11.95;10.80;;;;;;;;;;6312866;22;20018;-93
2023/09/10 02:19:14;;;;;;;13.10;11.77;;;;;;;;;;6312630;22;20030;-92
2023/09/10 02:21:40;;;;;;;13.00;11.80;;;;;;;;;;6340339;22;20030;-92
2023/09/10 02:24:05;;;;;;;12.43;11.23;;;;;;;;;;6340266;22;20422;-92
2023/09/10 02:26:31;;;;;;;13.63;11.38;;;;;;;;;;6312554;22;20429;-91
2023/09/10 02:28:56;;;;;;;12.48;11.27;;;;;;;;;;6339906;22;19999;-91
2023/09/10 02:31:22;;;;;;;12.88;11.68;;;;;;;;;;6340002;22;20010;-93
2023/09/10 02:33:47;;;;;;;15.15;12.80;;;;;;;;;;6312640;22;20326;-91
2023/09/10 02:36:13;;;;;;;17.63;12.68;;;;;;;;;;6339801;22;20125;-92
2023/09/10 02:38:38;;;;;;;13.15;11.82;;;;;;;;;;6340304;22;20060;-91
2023/09/10 02:41:04;;;;;;;12.88;11.68;;;;;;;;;;6312407;22;20006;-90
2023/09/10 02:43:29;;;;;;;12.85;11.65;;;;;;;;;;6312271;22;20380;-92
2023/09/10 02:45:55;;;;;;;13.57;12.13;;;;;;;;;;6340082;22;20410;-92
2023/09/10 02:48:20;;;;;;;13.57;12.18;;;;;;;;;;6312186;22;20011;-91
2023/09/10 02:50:46;;;;;;;14.02;12.43;;;;;;;;;;6312502;22;20026;-91
2023/09/10 02:53:11;;;;;;;13.18;11.88;;;;;;;;;;6339932;22;20003;-92
2023/09/10 02:55:36;;;;;;;13.07;11.75;;;;;;;;;;6312199;22;20060;-92
2023/09/10 02:58:02;;;;;;;12.52;10.70;;;;;;;;;;6312396;22;20003;-91
2023/09/10 03:00:28;;;;;;;14.10;12.70;;;;;;;;;;6312407;22;20026;-92
2023/09/10 03:02:56;;;;;;;12.63;11.48;;;;;;;;;;6312567;22;20007;-93
2023/09/10 03:05:22;;;;;;;12.50;11.25;;;;;;;;;;6287518;22;20094;-93
2023/09/10 03:07:55;;;;;;;13.07;11.68;;;;;;;;;;6340153;22;20003;-93
2023/09/10 03:10:20;;;;;;;13.88;12.48;;;;;;;;;;6340116;22;20003;-93
2023/09/10 03:12:46;;;;;;;13.25;11.98;;;;;;;;;;6339773;22;20004;-94
2023/09/10 03:15:13;;;;;;;12.98;11.80;;;;;;;;;;6340346;22;20010;-92
2023/09/10 03:17:38;;;;;;;13.07;11.75;;;;;;;;;;6339998;22;20022;-92
2023/09/10 03:20:05;;;;;;;13.75;12.45;;;;;;;;;;6312467;22;20003;-93
2023/09/10 03:22:31;;;;;;;12.45;11.23;;;;;;;;;;6312144;22;19999;-93
2023/09/10 03:24:57;;;;;;;13.30;11.85;;;;;;;;;;6339681;22;20437;-93
2023/09/10 03:27:22;;;;;;;13.52;12.15;;;;;;;;;;6339645;22;20009;-94
2023/09/10 03:29:48;;;;;;;14.15;12.40;;;;;;;;;;6312254;22;20086;-93
2023/09/10 03:32:13;;;;;;;13.63;12.32;;;;;;;;;;6339209;22;20095;-92
2023/09/10 03:34:39;;;;;;;12.93;11.65;;;;;;;;;;6339737;22;20009;-93
2023/09/10 03:37:06;;;;;;;13.13;11.63;;;;;;;;;;6312945;22;20030;-93
2023/09/10 03:39:31;;;;;;;13.45;12.10;;;;;;;;;;6313928;22;20013;-93
2023/09/10 03:41:57;;;;;;;13.27;11.93;;;;;;;;;;6314313;22;20007;-92
2023/09/10 03:44:22;;;;;;;13.23;11.98;;;;;;;;;;6314305;22;20007;-93
2023/09/10 03:46:47;;;;;;;13.27;12.00;;;;;;;;;;6341463;22;20074;-92
2023/09/10 03:49:13;;;;;;;12.45;11.20;;;;;;;;;;6314629;22;20025;-95
2023/09/10 03:51:40;;;;;;;13.48;12.18;;;;;;;;;;6313970;22;20036;-93
2023/09/10 03:54:07;;;;;;;12.48;11.25;;;;;;;;;;6315982;22;20085;-95
2023/09/10 03:56:33;;;;;;;14.50;13.10;;;;;;;;;;6314964;22;20085;-94
2023/09/10 03:58:58;;;;;;;13.95;12.55;;;;;;;;;;6314622;22;20080;-89
2023/09/10 04:01:24;;;;;;;13.00;11.63;;;;;;;;;;6341661;22;20006;-90
2023/09/10 04:03:49;;;;;;;14.13;12.73;;;;;;;;;;6342718;22;20002;-90
2023/09/10 04:06:14;;;;;;;13.20;12.00;;;;;;;;;;6342554;22;20007;-90
2023/09/10 04:08:40;;;;;;;13.77;12.48;;;;;;;;;;6342230;22;20029;-90
2023/09/10 04:11:08;;;;;;;14.20;12.32;;;;;;;;;;6342797;22;20322;-89
2023/09/10 04:13:33;;;;;;;13.48;12.13;;;;;;;;;;6314597;22;19998;-86
2023/09/10 04:15:59;;;;;;;13.00;11.60;;;;;;;;;;6314667;22;20422;-88
2023/09/10 04:18:24;;;;;;;15.02;12.20;;;;;;;;;;6341385;22;20003;-85
2023/09/10 04:20:49;;;;;;;12.70;11.40;;;;;;;;;;6341596;22;20322;-89
2023/09/10 04:23:15;;;;;;;13.38;12.00;;;;;;;;;;6340776;22;19999;-87
2023/09/10 04:25:41;;;;;;;17.23;12.18;;;;;;;;;;6340816;22;20009;-90
2023/09/10 04:28:06;;;;;;;14.18;12.85;;;;;;;;;;6340952;22;20035;-87
2023/09/10 04:30:31;;;;;;;13.68;12.38;;;;;;;;;;6340991;22;19999;-90
2023/09/10 04:32:57;;;;;;;14.65;12.80;;;;;;;;;;6340634;22;19998;-85
2023/09/10 04:35:23;;;;;;;17.63;15.82;;;;;;;;;;6340363;22;20451;-88
2023/09/10 04:37:48;;;;;;;14.98;13.38;;;;;;;;;;6341520;22;20030;-86
2023/09/10 04:40:14;;;;;;;13.85;12.45;;;;;;;;;;6313549;22;20078;-88
2023/09/10 04:42:39;;;;;;;14.80;13.15;;;;;;;;;;6340301;22;19999;-89
2023/09/10 04:45:05;;;;;;;14.05;12.63;;;;;;;;;;6313204;22;20003;-87
2023/09/10 04:47:30;;;;;;;13.02;11.82;;;;;;;;;;6340255;22;20014;-88
2023/09/10 04:49:56;;;;;;;15.15;13.18;;;;;;;;;;6342016;22;19999;-89
2023/09/10 04:52:21;;;;;;;14.52;13.05;;;;;;;;;;6340483;22;19999;-89
2023/09/10 04:54:47;;;;;;;14.40;13.00;;;;;;;;;;6340731;22;19999;-90
2023/09/10 04:57:12;;;;;;;13.13;11.82;;;;;;;;;;6340711;22;20025;-90
2023/09/10 04:59:38;;;;;;;14.00;12.60;;;;;;;;;;6340647;22;20006;-87
2023/09/10 05:02:06;;;;;;;14.18;12.70;;;;;;;;;;6340767;22;19995;-89
2023/09/10 05:04:32;;;;;;;14.40;12.90;;;;;;;;;;6340607;22;20095;-87
2023/09/10 05:06:58;;;;;;;20.63;16.80;;;;;;;;;;6340351;22;20007;-89
2023/09/10 05:09:23;;;;;;;23.20;20.70;;;;;;;;;;6312794;22;20003;-88
2023/09/10 05:11:49;;;;;;;14.43;13.00;;;;;;;;;;6340324;22;20063;-86
2023/09/10 05:14:16;;;;;;;13.90;12.48;;;;;;;;;;6340720;22;20003;-88
2023/09/10 05:16:42;;;;;;;15.23;13.82;;;;;;;;;;6340661;22;20006;-90
2023/09/10 17:02:25;;;;;;;11.00;9.55;;;;;;;;;;6337723;22;20011;-84
2023/09/10 17:04:50;;;;;;;11.05;9.95;;;;;;;;;;6340167;22;20433;-84
2023/09/10 17:07:16;;;;;;;11.07;9.98;;;;;;;;;;6334151;22;20003;-84
2023/09/10 17:09:42;;;;;;;11.50;10.10;;;;;;;;;;6309192;22;20027;-82
2023/09/10 17:12:08;;;;;;;11.40;10.30;;;;;;;;;;6308787;22;20011;-79
2023/09/10 17:14:33;;;;;;;10.05;9.13;;;;;;;;;;6309553;22;19999;-86
2023/09/10 17:17:02;;;;;;;11.02;10.02;;;;;;;;;;6309016;22;20011;-85
2023/09/10 17:19:28;;;;;;;10.63;9.63;;;;;;;;;;6307167;22;20371;-83
2023/09/10 17:21:53;;;;;;;10.68;9.65;;;;;;;;;;6309147;22;19995;-84
2023/09/10 17:24:24;;;;;;;10.98;9.85;;;;;;;;;;6308752;22;20003;-84
2023/09/10 17:26:50;;;;;;;10.43;9.25;;;;;;;;;;6308517;22;20446;-82
2023/09/10 17:29:15;;;;;;;10.88;9.98;;;;;;;;;;6308761;22;20035;-85
2023/09/10 17:31:41;;;;;;;10.20;9.18;;;;;;;;;;6308835;22;20017;-85
2023/09/10 17:34:06;;;;;;;10.82;9.70;;;;;;;;;;6307595;22;20011;-85
2023/09/10 17:36:32;;;;;;;10.82;9.57;;;;;;;;;;6308723;22;20399;-83
2023/09/10 17:38:57;;;;;;;10.18;9.30;;;;;;;;;;6307596;22;20101;-87
2023/09/10 17:41:23;;;;;;;10.68;9.65;;;;;;;;;;6308951;22;20034;-85
2023/09/10 17:43:48;;;;;;;10.73;9.63;;;;;;;;;;6309898;22;19999;-84
2023/09/10 17:46:14;;;;;;;9.73;8.77;;;;;;;;;;6309923;22;20362;-90
2023/09/10 17:48:39;;;;;;;10.07;9.20;;;;;;;;;;6310194;22;20064;-90
2023/09/10 17:51:05;;;;;;;10.52;9.52;;;;;;;;;;6309998;22;20091;-91
2023/09/10 17:53:32;;;;;;;9.98;8.98;;;;;;;;;;6307807;22;19999;-86
2023/09/10 17:56:00;;;;;;;10.68;9.23;;;;;;;;;;6307755;22;19999;-82
2023/09/10 17:58:27;;;;;;;10.95;9.95;;;;;;;;;;6308543;22;20312;-84
2023/09/10 18:00:53;;;;;;;10.18;9.15;;;;;;;;;;6313438;22;20011;-88
2023/09/10 18:03:18;;;;;;;10.80;9.90;;;;;;;;;;6339659;22;20005;-84
2023/09/10 18:05:44;;;;;;;10.57;9.32;;;;;;;;;;6340197;22;20078;-84
2023/09/10 18:08:09;;;;;;;10.80;9.70;;;;;;;;;;6340346;22;20307;-86
2023/09/10 18:10:35;;;;;;;10.48;8.95;;;;;;;;;;6347505;22;20003;-86
2023/09/10 18:13:01;;;;;;;10.90;9.88;;;;;;;;;;6340403;22;20003;-82
2023/09/10 18:15:26;;;;;;;10.60;9.60;;;;;;;;;;6341694;22;20003;-90
2023/09/10 18:17:52;;;;;;;11.05;9.98;;;;;;;;;;6312877;22;20472;-82
2023/09/10 18:20:17;;;;;;;11.02;10.02;;;;;;;;;;6340161;22;20007;-85
2023/09/10 18:22:43;;;;;;;11.95;10.85;;;;;;;;;;6340215;22;20116;-88
2023/09/10 18:25:08;;;;;;;11.63;9.75;;;;;;;;;;6340840;22;19999;-82
2023/09/10 18:27:34;;;;;;;10.35;9.35;;;;;;;;;;6340039;22;20007;-87
2023/09/10 18:29:59;;;;;;;10.20;9.18;;;;;;;;;;6340454;22;20048;-83
2023/09/10 18:32:25;;;;;;;11.10;9.98;;;;;;;;;;6339782;22;19995;-82
2023/09/10 18:34:50;;;;;;;11.18;10.10;;;;;;;;;;6340586;22;20005;-82
2023/09/10 18:37:16;;;;;;;12.52;10.25;;;;;;;;;;6339729;22;20064;-86
2023/09/10 18:39:41;;;;;;;11.80;10.70;;;;;;;;;;6339790;22;20371;-87
2023/09/10 18:42:07;;;;;;;10.65;9.77;;;;;;;;;;6312088;22;20379;-87
2023/09/10 18:44:32;;;;;;;10.18;9.23;;;;;;;;;;6340022;22;19999;-86
2023/09/10 18:46:59;;;;;;;10.60;9.57;;;;;;;;;;6339786;22;20011;-86
2023/09/10 18:49:25;;;;;;;10.77;9.57;;;;;;;;;;6339931;22;19999;-86
2023/09/10 18:52:09;;;;;;;12.02;10.05;;;;;;;;;;6339712;22;20005;-86
2023/09/10 18:54:37;;;;;;;10.80;9.70;;;;;;;;;;6340645;22;20025;-87
2023/09/10 18:57:03;;;;;;;11.57;10.20;;;;;;;;;;6340960;22;20007;-88
2023/09/10 18:59:29;;;;;;;11.82;10.52;;;;;;;;;;6312051;22;20027;-84
2023/09/10 19:01:54;;;;;;;10.88;9.77;;;;;;;;;;6340222;22;20077;-88
2023/09/10 19:04:20;;;;;;;12.13;9.77;;;;;;;;;;6311826;22;20119;-85
2023/09/10 19:06:46;;;;;;;10.63;9.57;;;;;;;;;;6339688;22;20040;-85
2023/09/10 19:09:12;;;;;;;10.48;9.55;;;;;;;;;;6341379;22;20356;-85
2023/09/10 19:11:37;;;;;;;10.73;9.63;;;;;;;;;;6341521;22;20009;-86
2023/09/10 19:14:03;;;;;;;10.60;9.70;;;;;;;;;;6341671;22;19999;-84
2023/09/10 19:16:30;;;;;;;11.73;10.52;;;;;;;;;;6313727;22;20038;-83
2023/09/10 19:18:55;;;;;;;10.60;9.50;;;;;;;;;;6341260;22;20052;-83
2023/09/10 19:21:21;;;;;;;10.63;9.43;;;;;;;;;;6341322;22;20006;-83
2023/09/10 19:23:46;;;;;;;10.75;9.65;;;;;;;;;;6341303;22;20300;-84
2023/09/10 19:26:12;;;;;;;11.50;10.40;;;;;;;;;;6341068;22;20067;-84
2023/09/10 19:28:37;;;;;;;11.02;9.82;;;;;;;;;;6341096;22;20014;-85
2023/09/10 19:31:10;;;;;;;11.10;10.13;;;;;;;;;;6341745;22;20026;-85
2023/09/10 19:33:36;;;;;;;12.63;10.25;;;;;;;;;;6341012;22;19998;-85
2023/09/10 19:36:05;;;;;;;11.60;10.60;;;;;;;;;;6341384;22;20003;-85
2023/09/10 19:38:31;;;;;;;12.30;11.02;;;;;;;;;;6341049;22;20025;-86
2023/09/10 19:40:56;;;;;;;12.23;10.95;;;;;;;;;;6340892;22;20414;-83
2023/09/10 19:43:24;;;;;;;11.75;10.65;;;;;;;;;;6341259;22;20036;-86
2023/09/10 19:45:51;;;;;;;10.93;9.93;;;;;;;;;;6340978;22;20033;-86
2023/09/10 19:48:17;;;;;;;10.95;9.95;;;;;;;;;;6340906;22;20367;-83
2023/09/10 19:50:43;;;;;;;11.98;10.80;;;;;;;;;;6340894;22;20002;-86
2023/09/10 19:53:08;;;;;;;11.30;10.15;;;;;;;;;;6341002;22;19998;-86
2023/09/10 19:55:34;;;;;;;11.70;10.60;;;;;;;;;;6341003;22;20003;-86
2023/09/10 19:57:59;;;;;;;11.00;9.80;;;;;;;;;;6340730;22;20003;-86
2023/09/10 20:00:25;;;;;;;12.32;11.00;;;;;;;;;;6341226;22;20406;-83
2023/09/10 20:02:51;;;;;;;12.10;10.90;;;;;;;;;;6340533;22;20018;-85
2023/09/10 20:05:17;;;;;;;13.18;11.98;;;;;;;;;;6340726;22;20078;-86
2023/09/10 20:07:42;;;;;;;11.38;10.25;;;;;;;;;;6340832;22;20059;-84
2023/09/10 20:10:09;;;;;;;11.02;10.05;;;;;;;;;;6340486;22;20003;-86
2023/09/10 20:12:35;;;;;;;11.48;10.43;;;;;;;;;;6341064;22;20003;-83
2023/09/10 20:15:04;;;;;;;12.63;11.43;;;;;;;;;;6341042;22;20402;-83
2023/09/10 20:17:29;;;;;;;12.35;10.10;;;;;;;;;;6340689;22;20328;-83
2023/09/10 20:19:55;;;;;;;11.13;9.95;;;;;;;;;;6340141;22;20022;-82
2023/09/10 20:22:21;;;;;;;13.20;11.80;;;;;;;;;;6340686;22;20382;-85
2023/09/10 20:24:46;;;;;;;11.60;10.50;;;;;;;;;;6314140;22;20002;-84
2023/09/10 20:27:12;;;;;;;12.20;10.93;;;;;;;;;;6340439;22;20006;-83
2023/09/10 20:29:38;;;;;;;13.70;10.95;;;;;;;;;;6312837;22;20089;-83
2023/09/10 20:32:04;;;;;;;11.40;10.45;;;;;;;;;;6340577;22;20002;-83
2023/09/10 20:34:30;;;;;;;11.73;10.63;;;;;;;;;;6340676;22;19998;-83
2023/09/10 20:36:55;;;;;;;11.50;10.40;;;;;;;;;;6340313;22;20078;-83
2023/09/10 20:39:20;;;;;;;11.73;10.63;;;;;;;;;;6340972;22;19999;-83
2023/09/10 20:41:46;;;;;;;12.00;10.90;;;;;;;;;;6340744;22;20002;-83
2023/09/10 20:44:11;;;;;;;11.50;10.30;;;;;;;;;;6340589;22;20377;-82
2023/09/10 20:46:37;;;;;;;12.07;10.98;;;;;;;;;;6340519;22;20029;-83
2023/09/10 20:49:02;;;;;;;11.80;10.30;;;;;;;;;;6340355;22;20007;-82
2023/09/10 20:51:31;;;;;;;11.43;10.35;;;;;;;;;;6340431;22;20017;-82
2023/09/10 20:53:57;;;;;;;11.88;10.68;;;;;;;;;;6341024;22;20007;-82
2023/09/10 20:56:23;;;;;;;11.55;10.45;;;;;;;;;;6340286;22;20010;-82
2023/09/10 20:58:48;;;;;;;12.20;10.90;;;;;;;;;;6340476;22;20003;-82
2023/09/10 21:01:13;;;;;;;12.60;11.30;;;;;;;;;;6340502;22;20013;-82
2023/09/10 21:03:39;;;;;;;12.52;11.23;;;;;;;;;;6340404;22;19999;-82
2023/09/10 21:06:05;;;;;;;11.68;10.52;;;;;;;;;;6340223;22;20003;-82
2023/09/10 21:08:30;;;;;;;12.02;10.88;;;;;;;;;;6339998;22;19998;-82
2023/09/10 21:10:56;;;;;;;11.50;10.40;;;;;;;;;;6340215;22;19999;-83
2023/09/10 21:13:22;;;;;;;13.10;11.43;;;;;;;;;;6340332;22;20003;-83
2023/09/10 21:15:48;;;;;;;12.45;11.15;;;;;;;;;;6340100;22;20013;-83
2023/09/10 21:18:14;;;;;;;12.43;11.15;;;;;;;;;;6341696;22;20413;-85
2023/09/10 21:20:40;;;;;;;12.90;11.60;;;;;;;;;;6340162;22;20095;-92
